sensor_id;sensor_type;location;lat;lon;timestamp;P1;durP1;ratioP1;P2;durP2;ratioP2
17052;SDS011;8643;48.824;11.422;2024-03-02T00:01:38;87.83;;;31.40;;
17052;SDS011;8643;48.824;11.422;2024-03-02T00:04:07;89.03;;;31.03;;
17052;SDS011;8643;48.824;11.422;2024-03-02T00:06:36;74.87;;;29.50;;
17052;SDS011;8643;48.824;11.422;2024-03-02T00:09:05;91.53;;;32.17;;
17052;SDS011;8643;48.824;11.422;2024-03-02T00:11:37;88.83;;;31.17;;
17052;SDS011;8643;48.824;11.422;2024-03-02T00:14:06;108.20;;;33.87;;
17052;SDS011;8643;48.824;11.422;2024-03-02T00:16:35;85.87;;;32.43;;
17052;SDS011;8643;48.824;11.422;2024-03-02T00:19:06;103.00;;;33.77;;
17052;SDS011;8643;48.824;11.422;2024-03-02T00:21:36;117.53;;;34.03;;
17052;SDS011;8643;48.824;11.422;2024-03-02T00:24:06;113.93;;;35.33;;
17052;SDS011;8643;48.824;11.422;2024-03-02T00:26:48;110.67;;;35.70;;
17052;SDS011;8643;48.824;11.422;2024-03-02T00:29:16;97.27;;;33.53;;
17052;SDS011;8643;48.824;11.422;2024-03-02T00:31:47;86.53;;;32.70;;
17052;SDS011;8643;48.824;11.422;2024-03-02T00:34:17;105.60;;;34.30;;
17052;SDS011;8643;48.824;11.422;2024-03-02T00:36:46;102.77;;;34.07;;
17052;SDS011;8643;48.824;11.422;2024-03-02T00:39:15;96.17;;;33.97;;
17052;SDS011;8643;48.824;11.422;2024-03-02T00:41:45;112.70;;;37.90;;
17052;SDS011;8643;48.824;11.422;2024-03-02T00:44:14;108.80;;;37.63;;
17052;SDS011;8643;48.824;11.422;2024-03-02T00:46:43;120.27;;;37.73;;
17052;SDS011;8643;48.824;11.422;2024-03-02T00:49:12;133.70;;;39.27;;
17052;SDS011;8643;48.824;11.422;2024-03-02T00:51:49;151.93;;;39.50;;
17052;SDS011;8643;48.824;11.422;2024-03-02T00:54:20;159.20;;;41.37;;
17052;SDS011;8643;48.824;11.422;2024-03-02T00:56:51;133.63;;;39.63;;
17052;SDS011;8643;48.824;11.422;2024-03-02T00:59:22;151.60;;;40.70;;
17052;SDS011;8643;48.824;11.422;2024-03-02T01:01:51;191.90;;;43.00;;
17052;SDS011;8643;48.824;11.422;2024-03-02T01:04:22;170.30;;;43.43;;
17052;SDS011;8643;48.824;11.422;2024-03-02T01:06:50;165.07;;;42.93;;
17052;SDS011;8643;48.824;11.422;2024-03-02T01:09:19;178.23;;;44.10;;
17052;SDS011;8643;48.824;11.422;2024-03-02T01:11:47;177.83;;;45.10;;
17052;SDS011;8643;48.824;11.422;2024-03-02T01:14:16;214.93;;;46.67;;
17052;SDS011;8643;48.824;11.422;2024-03-02T01:16:44;219.43;;;47.43;;
17052;SDS011;8643;48.824;11.422;2024-03-02T01:19:13;177.50;;;44.90;;
17052;SDS011;8643;48.824;11.422;2024-03-02T01:21:43;195.20;;;45.30;;
17052;SDS011;8643;48.824;11.422;2024-03-02T01:24:12;225.13;;;45.87;;
17052;SDS011;8643;48.824;11.422;2024-03-02T01:26:41;188.40;;;43.30;;
17052;SDS011;8643;48.824;11.422;2024-03-02T01:29:09;358.80;;;49.57;;
17052;SDS011;8643;48.824;11.422;2024-03-02T01:31:38;304.83;;;46.37;;
17052;SDS011;8643;48.824;11.422;2024-03-02T01:34:08;372.80;;;49.90;;
17052;SDS011;8643;48.824;11.422;2024-03-02T01:36:37;274.50;;;44.87;;
17052;SDS011;8643;48.824;11.422;2024-03-02T01:39:06;177.77;;;41.20;;
17052;SDS011;8643;48.824;11.422;2024-03-02T01:41:36;208.53;;;42.10;;
17052;SDS011;8643;48.824;11.422;2024-03-02T01:44:04;254.07;;;46.50;;
17052;SDS011;8643;48.824;11.422;2024-03-02T01:46:33;261.70;;;46.60;;
17052;SDS011;8643;48.824;11.422;2024-03-02T01:49:02;224.33;;;46.37;;
17052;SDS011;8643;48.824;11.422;2024-03-02T01:51:31;309.73;;;49.23;;
17052;SDS011;8643;48.824;11.422;2024-03-02T01:53:59;343.83;;;51.07;;
17052;SDS011;8643;48.824;11.422;2024-03-02T01:56:30;304.27;;;51.83;;
17052;SDS011;8643;48.824;11.422;2024-03-02T01:58:58;360.67;;;53.20;;
17052;SDS011;8643;48.824;11.422;2024-03-02T02:01:27;538.60;;;59.30;;
17052;SDS011;8643;48.824;11.422;2024-03-02T02:03:57;325.67;;;52.97;;
17052;SDS011;8643;48.824;11.422;2024-03-02T02:06:25;361.30;;;54.93;;
17052;SDS011;8643;48.824;11.422;2024-03-02T02:08:54;569.67;;;59.90;;
17052;SDS011;8643;48.824;11.422;2024-03-02T02:11:24;540.37;;;58.70;;
17052;SDS011;8643;48.824;11.422;2024-03-02T02:13:54;480.83;;;61.40;;
17052;SDS011;8643;48.824;11.422;2024-03-02T02:16:23;500.17;;;59.17;;
17052;SDS011;8643;48.824;11.422;2024-03-02T02:18:51;502.37;;;61.87;;
17052;SDS011;8643;48.824;11.422;2024-03-02T02:21:24;513.83;;;59.70;;
17052;SDS011;8643;48.824;11.422;2024-03-02T02:23:53;476.33;;;60.00;;
17052;SDS011;8643;48.824;11.422;2024-03-02T02:26:22;342.83;;;57.13;;
17052;SDS011;8643;48.824;11.422;2024-03-02T02:28:50;379.73;;;55.80;;
17052;SDS011;8643;48.824;11.422;2024-03-02T02:31:18;482.50;;;59.97;;
17052;SDS011;8643;48.824;11.422;2024-03-02T02:33:47;493.83;;;59.47;;
17052;SDS011;8643;48.824;11.422;2024-03-02T02:36:16;403.17;;;56.07;;
17052;SDS011;8643;48.824;11.422;2024-03-02T02:38:46;424.27;;;57.90;;
17052;SDS011;8643;48.824;11.422;2024-03-02T02:41:18;370.10;;;55.63;;
17052;SDS011;8643;48.824;11.422;2024-03-02T02:43:46;339.50;;;57.47;;
17052;SDS011;8643;48.824;11.422;2024-03-02T02:46:15;303.97;;;53.97;;
17052;SDS011;8643;48.824;11.422;2024-03-02T02:48:43;261.33;;;50.80;;
17052;SDS011;8643;48.824;11.422;2024-03-02T02:51:12;240.07;;;50.73;;
17052;SDS011;8643;48.824;11.422;2024-03-02T02:53:40;272.77;;;53.20;;
17052;SDS011;8643;48.824;11.422;2024-03-02T02:56:10;231.33;;;50.93;;
17052;SDS011;8643;48.824;11.422;2024-03-02T02:58:39;234.60;;;51.53;;
17052;SDS011;8643;48.824;11.422;2024-03-02T03:01:08;230.27;;;51.87;;
17052;SDS011;8643;48.824;11.422;2024-03-02T03:03:38;244.50;;;51.63;;
17052;SDS011;8643;48.824;11.422;2024-03-02T03:06:06;233.13;;;51.37;;
17052;SDS011;8643;48.824;11.422;2024-03-02T03:08:34;209.90;;;48.67;;
17052;SDS011;8643;48.824;11.422;2024-03-02T03:11:03;215.77;;;49.00;;
17052;SDS011;8643;48.824;11.422;2024-03-02T03:13:34;229.10;;;49.47;;
17052;SDS011;8643;48.824;11.422;2024-03-02T03:16:03;197.83;;;47.87;;
17052;SDS011;8643;48.824;11.422;2024-03-02T03:18:32;203.43;;;46.80;;
17052;SDS011;8643;48.824;11.422;2024-03-02T03:21:00;206.43;;;47.67;;
17052;SDS011;8643;48.824;11.422;2024-03-02T03:23:29;201.00;;;45.97;;
17052;SDS011;8643;48.824;11.422;2024-03-02T03:25:58;207.20;;;47.80;;
17052;SDS011;8643;48.824;11.422;2024-03-02T03:28:27;210.30;;;47.40;;
17052;SDS011;8643;48.824;11.422;2024-03-02T03:30:57;183.53;;;45.87;;
17052;SDS011;8643;48.824;11.422;2024-03-02T03:33:26;216.97;;;48.03;;
17052;SDS011;8643;48.824;11.422;2024-03-02T03:35:54;187.57;;;44.83;;
17052;SDS011;8643;48.824;11.422;2024-03-02T03:38:23;206.87;;;44.10;;
17052;SDS011;8643;48.824;11.422;2024-03-02T03:40:51;190.97;;;45.20;;
17052;SDS011;8643;48.824;11.422;2024-03-02T03:43:19;193.27;;;44.67;;
17052;SDS011;8643;48.824;11.422;2024-03-02T03:45:48;189.67;;;44.23;;
17052;SDS011;8643;48.824;11.422;2024-03-02T03:48:18;169.73;;;42.97;;
17052;SDS011;8643;48.824;11.422;2024-03-02T03:50:47;175.23;;;42.67;;
17052;SDS011;8643;48.824;11.422;2024-03-02T03:53:15;179.13;;;42.63;;
17052;SDS011;8643;48.824;11.422;2024-03-02T03:55:44;168.13;;;43.33;;
17052;SDS011;8643;48.824;11.422;2024-03-02T03:58:13;158.93;;;40.70;;
17052;SDS011;8643;48.824;11.422;2024-03-02T04:00:45;180.30;;;42.97;;
17052;SDS011;8643;48.824;11.422;2024-03-02T04:03:14;172.37;;;43.77;;
17052;SDS011;8643;48.824;11.422;2024-03-02T04:05:44;154.93;;;41.23;;
17052;SDS011;8643;48.824;11.422;2024-03-02T04:08:13;140.97;;;39.03;;
17052;SDS011;8643;48.824;11.422;2024-03-02T04:10:41;163.67;;;41.07;;
17052;SDS011;8643;48.824;11.422;2024-03-02T04:13:09;145.00;;;38.50;;
17052;SDS011;8643;48.824;11.422;2024-03-02T04:15:38;136.33;;;36.73;;
17052;SDS011;8643;48.824;11.422;2024-03-02T04:18:07;121.43;;;35.07;;
17052;SDS011;8643;48.824;11.422;2024-03-02T04:20:35;140.53;;;37.47;;
17052;SDS011;8643;48.824;11.422;2024-03-02T04:23:05;141.10;;;36.57;;
17052;SDS011;8643;48.824;11.422;2024-03-02T04:25:34;120.57;;;34.57;;
17052;SDS011;8643;48.824;11.422;2024-03-02T04:28:03;151.40;;;38.27;;
17052;SDS011;8643;48.824;11.422;2024-03-02T04:30:31;148.07;;;38.80;;
17052;SDS011;8643;48.824;11.422;2024-03-02T04:33:00;131.03;;;36.70;;
17052;SDS011;8643;48.824;11.422;2024-03-02T04:35:29;158.83;;;38.53;;
17052;SDS011;8643;48.824;11.422;2024-03-02T04:37:57;131.53;;;37.67;;
17052;SDS011;8643;48.824;11.422;2024-03-02T04:40:27;130.37;;;36.10;;
17052;SDS011;8643;48.824;11.422;2024-03-02T04:42:55;141.33;;;37.87;;
17052;SDS011;8643;48.824;11.422;2024-03-02T04:45:25;136.70;;;36.47;;
17052;SDS011;8643;48.824;11.422;2024-03-02T04:47:54;131.53;;;36.37;;
17052;SDS011;8643;48.824;11.422;2024-03-02T04:50:22;117.50;;;36.37;;
17052;SDS011;8643;48.824;11.422;2024-03-02T04:52:51;122.20;;;36.07;;
17052;SDS011;8643;48.824;11.422;2024-03-02T04:55:19;141.73;;;39.07;;
17052;SDS011;8643;48.824;11.422;2024-03-02T04:58:13;121.33;;;35.60;;
17052;SDS011;8643;48.824;11.422;2024-03-02T05:00:41;135.40;;;35.30;;
17052;SDS011;8643;48.824;11.422;2024-03-02T05:03:13;144.97;;;37.23;;
17052;SDS011;8643;48.824;11.422;2024-03-02T05:05:42;141.47;;;35.50;;
17052;SDS011;8643;48.824;11.422;2024-03-02T05:08:10;125.50;;;34.97;;
17052;SDS011;8643;48.824;11.422;2024-03-02T05:10:39;115.93;;;33.70;;
17052;SDS011;8643;48.824;11.422;2024-03-02T05:13:08;123.97;;;34.00;;
17052;SDS011;8643;48.824;11.422;2024-03-02T05:15:38;124.70;;;32.37;;
17052;SDS011;8643;48.824;11.422;2024-03-02T05:18:05;109.93;;;31.40;;
17052;SDS011;8643;48.824;11.422;2024-03-02T05:20:34;111.37;;;32.97;;
17052;SDS011;8643;48.824;11.422;2024-03-02T05:23:03;108.47;;;31.00;;
17052;SDS011;8643;48.824;11.422;2024-03-02T05:25:31;103.50;;;31.87;;
17052;SDS011;8643;48.824;11.422;2024-03-02T05:28:01;116.23;;;31.93;;
17052;SDS011;8643;48.824;11.422;2024-03-02T05:30:31;108.57;;;33.17;;
17052;SDS011;8643;48.824;11.422;2024-03-02T05:33:00;109.27;;;31.30;;
17052;SDS011;8643;48.824;11.422;2024-03-02T05:35:29;141.13;;;34.77;;
17052;SDS011;8643;48.824;11.422;2024-03-02T05:37:57;106.93;;;30.67;;
17052;SDS011;8643;48.824;11.422;2024-03-02T05:40:26;124.10;;;32.37;;
17052;SDS011;8643;48.824;11.422;2024-03-02T05:42:54;103.47;;;30.30;;
17052;SDS011;8643;48.824;11.422;2024-03-02T05:45:23;88.93;;;27.60;;
17052;SDS011;8643;48.824;11.422;2024-03-02T05:47:51;86.27;;;29.03;;
17052;SDS011;8643;48.824;11.422;2024-03-02T05:50:21;87.00;;;26.93;;
17052;SDS011;8643;48.824;11.422;2024-03-02T05:52:50;100.07;;;29.47;;
17052;SDS011;8643;48.824;11.422;2024-03-02T05:55:18;90.00;;;28.43;;
17052;SDS011;8643;48.824;11.422;2024-03-02T05:57:46;77.13;;;25.40;;
17052;SDS011;8643;48.824;11.422;2024-03-02T06:00:29;76.20;;;25.33;;
17052;SDS011;8643;48.824;11.422;2024-03-02T06:02:58;70.40;;;24.23;;
17052;SDS011;8643;48.824;11.422;2024-03-02T06:05:27;84.23;;;25.87;;
17052;SDS011;8643;48.824;11.422;2024-03-02T06:07:56;71.47;;;25.83;;
17052;SDS011;8643;48.824;11.422;2024-03-02T06:10:24;84.70;;;25.77;;
17052;SDS011;8643;48.824;11.422;2024-03-02T06:12:53;62.10;;;24.73;;
17052;SDS011;8643;48.824;11.422;2024-03-02T06:15:22;83.57;;;25.27;;
17052;SDS011;8643;48.824;11.422;2024-03-02T06:17:50;142.20;;;27.40;;
17052;SDS011;8643;48.824;11.422;2024-03-02T06:20:19;224.73;;;28.60;;
17052;SDS011;8643;48.824;11.422;2024-03-02T06:22:49;224.37;;;30.50;;
17052;SDS011;8643;48.824;11.422;2024-03-02T06:25:18;207.80;;;30.00;;
17052;SDS011;8643;48.824;11.422;2024-03-02T06:27:46;260.43;;;29.13;;
17052;SDS011;8643;48.824;11.422;2024-03-02T06:30:15;234.53;;;32.03;;
17052;SDS011;8643;48.824;11.422;2024-03-02T06:32:43;255.83;;;31.03;;
17052;SDS011;8643;48.824;11.422;2024-03-02T06:35:13;215.07;;;29.30;;
17052;SDS011;8643;48.824;11.422;2024-03-02T06:37:41;93.27;;;25.13;;
17052;SDS011;8643;48.824;11.422;2024-03-02T06:40:11;307.53;;;33.03;;
17052;SDS011;8643;48.824;11.422;2024-03-02T06:42:40;110.63;;;28.07;;
17052;SDS011;8643;48.824;11.422;2024-03-02T06:45:09;298.53;;;34.37;;
17052;SDS011;8643;48.824;11.422;2024-03-02T06:47:38;272.80;;;33.67;;
17052;SDS011;8643;48.824;11.422;2024-03-02T06:50:06;364.47;;;36.40;;
17052;SDS011;8643;48.824;11.422;2024-03-02T06:52:36;308.87;;;37.23;;
17052;SDS011;8643;48.824;11.422;2024-03-02T06:55:05;159.20;;;31.47;;
17052;SDS011;8643;48.824;11.422;2024-03-02T06:57:36;84.97;;;29.07;;
17052;SDS011;8643;48.824;11.422;2024-03-02T07:00:04;127.57;;;33.40;;
17052;SDS011;8643;48.824;11.422;2024-03-02T07:02:35;141.43;;;35.07;;
17052;SDS011;8643;48.824;11.422;2024-03-02T07:05:04;253.17;;;42.30;;
17052;SDS011;8643;48.824;11.422;2024-03-02T07:07:33;402.90;;;44.80;;
17052;SDS011;8643;48.824;11.422;2024-03-02T07:10:03;427.80;;;47.50;;
17052;SDS011;8643;48.824;11.422;2024-03-02T07:12:34;288.63;;;46.40;;
17052;SDS011;8643;48.824;11.422;2024-03-02T07:15:04;205.77;;;43.30;;
17052;SDS011;8643;48.824;11.422;2024-03-02T07:17:56;231.20;;;43.83;;
17052;SDS011;8643;48.824;11.422;2024-03-02T07:20:25;306.80;;;48.77;;
17052;SDS011;8643;48.824;11.422;2024-03-02T07:22:53;237.37;;;44.70;;
17052;SDS011;8643;48.824;11.422;2024-03-02T07:25:22;170.03;;;43.20;;
17052;SDS011;8643;48.824;11.422;2024-03-02T07:27:54;177.50;;;44.47;;
17052;SDS011;8643;48.824;11.422;2024-03-02T07:30:23;171.73;;;44.30;;
17052;SDS011;8643;48.824;11.422;2024-03-02T07:32:52;170.33;;;43.90;;
17052;SDS011;8643;48.824;11.422;2024-03-02T07:35:21;158.90;;;45.30;;
17052;SDS011;8643;48.824;11.422;2024-03-02T07:37:53;147.37;;;44.23;;
17052;SDS011;8643;48.824;11.422;2024-03-02T07:40:22;108.57;;;40.37;;
17052;SDS011;8643;48.824;11.422;2024-03-02T07:42:51;116.50;;;41.13;;
17052;SDS011;8643;48.824;11.422;2024-03-02T07:45:21;106.17;;;42.17;;
17052;SDS011;8643;48.824;11.422;2024-03-02T07:47:50;85.47;;;37.93;;
17052;SDS011;8643;48.824;11.422;2024-03-02T07:50:19;62.70;;;31.67;;
17052;SDS011;8643;48.824;11.422;2024-03-02T07:52:47;64.30;;;29.03;;
17052;SDS011;8643;48.824;11.422;2024-03-02T07:55:16;57.70;;;29.40;;
17052;SDS011;8643;48.824;11.422;2024-03-02T07:57:44;68.97;;;29.73;;
17052;SDS011;8643;48.824;11.422;2024-03-02T08:00:13;55.00;;;28.33;;
17052;SDS011;8643;48.824;11.422;2024-03-02T08:02:43;56.10;;;29.37;;
17052;SDS011;8643;48.824;11.422;2024-03-02T08:05:12;67.20;;;31.23;;
17052;SDS011;8643;48.824;11.422;2024-03-02T08:07:43;55.57;;;28.10;;
17052;SDS011;8643;48.824;11.422;2024-03-02T08:10:12;56.97;;;29.93;;
17052;SDS011;8643;48.824;11.422;2024-03-02T08:12:41;63.40;;;30.20;;
17052;SDS011;8643;48.824;11.422;2024-03-02T08:15:10;67.90;;;29.13;;
17052;SDS011;8643;48.824;11.422;2024-03-02T08:17:39;50.57;;;28.33;;
17052;SDS011;8643;48.824;11.422;2024-03-02T08:20:17;71.50;;;30.07;;
17052;SDS011;8643;48.824;11.422;2024-03-02T08:22:46;59.53;;;30.33;;
17052;SDS011;8643;48.824;11.422;2024-03-02T08:25:14;61.47;;;31.43;;
17052;SDS011;8643;48.824;11.422;2024-03-02T08:27:43;63.70;;;31.00;;
17052;SDS011;8643;48.824;11.422;2024-03-02T08:30:12;60.87;;;31.93;;
17052;SDS011;8643;48.824;11.422;2024-03-02T08:32:42;71.97;;;33.13;;
17052;SDS011;8643;48.824;11.422;2024-03-02T08:35:11;72.03;;;35.07;;
17052;SDS011;8643;48.824;11.422;2024-03-02T08:37:42;74.20;;;34.30;;
17052;SDS011;8643;48.824;11.422;2024-03-02T08:40:11;80.10;;;35.63;;
17052;SDS011;8643;48.824;11.422;2024-03-02T08:42:44;79.87;;;35.47;;
17052;SDS011;8643;48.824;11.422;2024-03-02T08:45:13;82.13;;;37.53;;
17052;SDS011;8643;48.824;11.422;2024-03-02T08:47:43;79.90;;;39.13;;
17052;SDS011;8643;48.824;11.422;2024-03-02T08:50:12;74.27;;;37.07;;
17052;SDS011;8643;48.824;11.422;2024-03-02T08:52:42;82.77;;;37.13;;
17052;SDS011;8643;48.824;11.422;2024-03-02T08:55:11;79.53;;;35.93;;
17052;SDS011;8643;48.824;11.422;2024-03-02T08:57:40;85.07;;;39.03;;
17052;SDS011;8643;48.824;11.422;2024-03-02T09:00:10;94.27;;;41.20;;
17052;SDS011;8643;48.824;11.422;2024-03-02T09:02:39;92.40;;;40.53;;
17052;SDS011;8643;48.824;11.422;2024-03-02T09:05:08;98.33;;;42.23;;
17052;SDS011;8643;48.824;11.422;2024-03-02T09:07:36;94.77;;;41.67;;
17052;SDS011;8643;48.824;11.422;2024-03-02T09:10:07;105.03;;;43.13;;
17052;SDS011;8643;48.824;11.422;2024-03-02T09:12:37;110.00;;;44.93;;
17052;SDS011;8643;48.824;11.422;2024-03-02T09:15:06;111.20;;;44.70;;
17052;SDS011;8643;48.824;11.422;2024-03-02T09:17:36;109.43;;;45.97;;
17052;SDS011;8643;48.824;11.422;2024-03-02T09:20:04;107.20;;;44.33;;
17052;SDS011;8643;48.824;11.422;2024-03-02T09:22:34;107.80;;;44.53;;
17052;SDS011;8643;48.824;11.422;2024-03-02T09:25:03;100.93;;;41.73;;
17052;SDS011;8643;48.824;11.422;2024-03-02T09:27:37;89.50;;;41.43;;
17052;SDS011;8643;48.824;11.422;2024-03-02T09:30:07;107.03;;;43.00;;
17052;SDS011;8643;48.824;11.422;2024-03-02T09:32:37;100.47;;;44.07;;
17052;SDS011;8643;48.824;11.422;2024-03-02T09:35:06;102.47;;;43.43;;
17052;SDS011;8643;48.824;11.422;2024-03-02T09:37:35;89.27;;;39.20;;
17052;SDS011;8643;48.824;11.422;2024-03-02T09:40:04;83.50;;;38.17;;
17052;SDS011;8643;48.824;11.422;2024-03-02T09:42:34;91.53;;;39.73;;
17052;SDS011;8643;48.824;11.422;2024-03-02T09:45:05;80.93;;;39.23;;
17052;SDS011;8643;48.824;11.422;2024-03-02T09:47:35;81.87;;;38.07;;
17052;SDS011;8643;48.824;11.422;2024-03-02T09:50:04;81.70;;;36.97;;
17052;SDS011;8643;48.824;11.422;2024-03-02T09:52:34;84.73;;;38.33;;
17052;SDS011;8643;48.824;11.422;2024-03-02T09:55:05;76.03;;;38.27;;
17052;SDS011;8643;48.824;11.422;2024-03-02T09:57:37;84.00;;;39.17;;
17052;SDS011;8643;48.824;11.422;2024-03-02T10:00:07;94.17;;;41.03;;
17052;SDS011;8643;48.824;11.422;2024-03-02T10:02:42;84.93;;;38.30;;
17052;SDS011;8643;48.824;11.422;2024-03-02T10:05:11;85.83;;;40.37;;
17052;SDS011;8643;48.824;11.422;2024-03-02T10:07:39;86.00;;;39.13;;
17052;SDS011;8643;48.824;11.422;2024-03-02T10:10:14;69.17;;;36.13;;
17052;SDS011;8643;48.824;11.422;2024-03-02T10:12:45;78.30;;;37.77;;
17052;SDS011;8643;48.824;11.422;2024-03-02T10:15:13;79.47;;;38.43;;
17052;SDS011;8643;48.824;11.422;2024-03-02T10:17:52;68.73;;;34.43;;
17052;SDS011;8643;48.824;11.422;2024-03-02T10:20:21;63.90;;;34.27;;
17052;SDS011;8643;48.824;11.422;2024-03-02T10:22:50;71.60;;;34.60;;
17052;SDS011;8643;48.824;11.422;2024-03-02T10:25:29;64.40;;;31.40;;
17052;SDS011;8643;48.824;11.422;2024-03-02T10:28:17;65.93;;;32.73;;
17052;SDS011;8643;48.824;11.422;2024-03-02T10:30:47;66.00;;;30.80;;
17052;SDS011;8643;48.824;11.422;2024-03-02T10:33:18;64.47;;;31.70;;
17052;SDS011;8643;48.824;11.422;2024-03-02T10:35:47;60.07;;;31.77;;
17052;SDS011;8643;48.824;11.422;2024-03-02T10:38:17;61.17;;;31.40;;
17052;SDS011;8643;48.824;11.422;2024-03-02T10:40:47;64.50;;;31.43;;
17052;SDS011;8643;48.824;11.422;2024-03-02T10:43:17;56.63;;;30.23;;
17052;SDS011;8643;48.824;11.422;2024-03-02T10:45:48;60.73;;;29.83;;
17052;SDS011;8643;48.824;11.422;2024-03-02T10:48:18;60.13;;;31.57;;
17052;SDS011;8643;48.824;11.422;2024-03-02T10:50:48;63.40;;;30.37;;
17052;SDS011;8643;48.824;11.422;2024-03-02T10:53:18;63.63;;;31.43;;
17052;SDS011;8643;48.824;11.422;2024-03-02T10:55:46;57.73;;;30.23;;
17052;SDS011;8643;48.824;11.422;2024-03-02T10:58:31;56.43;;;29.57;;
17052;SDS011;8643;48.824;11.422;2024-03-02T11:01:02;62.70;;;31.67;;
17052;SDS011;8643;48.824;11.422;2024-03-02T11:03:33;55.40;;;30.47;;
17052;SDS011;8643;48.824;11.422;2024-03-02T11:06:05;64.07;;;32.67;;
17052;SDS011;8643;48.824;11.422;2024-03-02T11:08:38;64.90;;;32.10;;
17052;SDS011;8643;48.824;11.422;2024-03-02T11:11:12;60.47;;;31.42;;
17052;SDS011;8643;48.824;11.422;2024-03-02T11:13:49;61.60;;;32.17;;
17052;SDS011;8643;48.824;11.422;2024-03-02T11:16:24;59.95;;;31.38;;
17052;SDS011;8643;48.824;11.422;2024-03-02T11:19:03;58.83;;;31.85;;
17052;SDS011;8643;48.824;11.422;2024-03-02T11:21:34;63.78;;;31.05;;
17052;SDS011;8643;48.824;11.422;2024-03-02T11:27:04;52.83;;;29.98;;
17052;SDS011;8643;48.824;11.422;2024-03-02T11:29:44;58.63;;;30.95;;
17052;SDS011;8643;48.824;11.422;2024-03-02T11:32:17;54.30;;;28.42;;
17052;SDS011;8643;48.824;11.422;2024-03-02T11:34:50;50.95;;;28.65;;
17052;SDS011;8643;48.824;11.422;2024-03-02T11:37:20;50.63;;;27.38;;
17052;SDS011;8643;48.824;11.422;2024-03-02T11:39:49;52.47;;;29.33;;
17052;SDS011;8643;48.824;11.422;2024-03-02T11:42:18;52.40;;;28.02;;
17052;SDS011;8643;48.824;11.422;2024-03-02T11:44:49;49.17;;;26.55;;
17052;SDS011;8643;48.824;11.422;2024-03-02T11:47:18;49.63;;;28.63;;
17052;SDS011;8643;48.824;11.422;2024-03-02T11:49:48;49.35;;;28.40;;
17052;SDS011;8643;48.824;11.422;2024-03-02T11:52:19;48.42;;;27.13;;
17052;SDS011;8643;48.824;11.422;2024-03-02T11:54:48;48.33;;;28.27;;
17052;SDS011;8643;48.824;11.422;2024-03-02T11:57:18;48.20;;;27.02;;
17052;SDS011;8643;48.824;11.422;2024-03-02T11:59:50;46.35;;;26.83;;
17052;SDS011;8643;48.824;11.422;2024-03-02T12:02:19;50.60;;;28.33;;
17052;SDS011;8643;48.824;11.422;2024-03-02T12:04:49;42.00;;;25.40;;
17052;SDS011;8643;48.824;11.422;2024-03-02T12:07:18;47.00;;;27.13;;
17052;SDS011;8643;48.824;11.422;2024-03-02T12:09:49;50.30;;;26.95;;
17052;SDS011;8643;48.824;11.422;2024-03-02T12:12:28;46.72;;;26.15;;
17052;SDS011;8643;48.824;11.422;2024-03-02T12:14:58;43.72;;;25.83;;
17052;SDS011;8643;48.824;11.422;2024-03-02T12:17:27;49.35;;;27.40;;
17052;SDS011;8643;48.824;11.422;2024-03-02T12:19:58;45.75;;;27.55;;
17052;SDS011;8643;48.824;11.422;2024-03-02T12:22:30;39.60;;;24.42;;
17052;SDS011;8643;48.824;11.422;2024-03-02T12:24:59;42.78;;;24.55;;
17052;SDS011;8643;48.824;11.422;2024-03-02T12:27:28;42.65;;;25.60;;
17052;SDS011;8643;48.824;11.422;2024-03-02T12:29:56;40.17;;;24.38;;
17052;SDS011;8643;48.824;11.422;2024-03-02T12:32:26;38.85;;;25.20;;
17052;SDS011;8643;48.824;11.422;2024-03-02T12:34:55;35.05;;;22.30;;
17052;SDS011;8643;48.824;11.422;2024-03-02T12:37:24;35.53;;;23.23;;
17052;SDS011;8643;48.824;11.422;2024-03-02T12:39:54;36.30;;;22.77;;
17052;SDS011;8643;48.824;11.422;2024-03-02T12:42:23;37.22;;;23.40;;
17052;SDS011;8643;48.824;11.422;2024-03-02T12:44:52;36.40;;;23.23;;
17052;SDS011;8643;48.824;11.422;2024-03-02T12:47:23;37.42;;;22.73;;
17052;SDS011;8643;48.824;11.422;2024-03-02T12:49:51;33.60;;;22.40;;
17052;SDS011;8643;48.824;11.422;2024-03-02T12:52:20;32.97;;;21.30;;
17052;SDS011;8643;48.824;11.422;2024-03-02T12:54:49;32.95;;;21.73;;
17052;SDS011;8643;48.824;11.422;2024-03-02T12:57:19;34.67;;;22.30;;
17052;SDS011;8643;48.824;11.422;2024-03-02T12:59:47;34.78;;;21.63;;
17052;SDS011;8643;48.824;11.422;2024-03-02T13:02:17;33.60;;;21.17;;
17052;SDS011;8643;48.824;11.422;2024-03-02T13:04:53;33.70;;;21.17;;
17052;SDS011;8643;48.824;11.422;2024-03-02T13:07:22;36.22;;;22.00;;
17052;SDS011;8643;48.824;11.422;2024-03-02T13:09:51;35.92;;;21.80;;
17052;SDS011;8643;48.824;11.422;2024-03-02T13:12:22;32.33;;;21.60;;
17052;SDS011;8643;48.824;11.422;2024-03-02T13:14:52;36.28;;;21.55;;
17052;SDS011;8643;48.824;11.422;2024-03-02T13:17:21;33.50;;;21.75;;
17052;SDS011;8643;48.824;11.422;2024-03-02T13:19:54;34.40;;;20.80;;
17052;SDS011;8643;48.824;11.422;2024-03-02T13:22:25;32.80;;;21.33;;
17052;SDS011;8643;48.824;11.422;2024-03-02T13:24:54;32.55;;;20.70;;
17052;SDS011;8643;48.824;11.422;2024-03-02T13:27:22;31.92;;;19.88;;
17052;SDS011;8643;48.824;11.422;2024-03-02T13:29:51;34.55;;;20.92;;
17052;SDS011;8643;48.824;11.422;2024-03-02T13:32:20;32.15;;;20.88;;
17052;SDS011;8643;48.824;11.422;2024-03-02T13:34:50;30.88;;;20.00;;
17052;SDS011;8643;48.824;11.422;2024-03-02T13:37:21;32.60;;;21.27;;
17052;SDS011;8643;48.824;11.422;2024-03-02T13:39:50;34.45;;;19.77;;
17052;SDS011;8643;48.824;11.422;2024-03-02T13:42:18;32.30;;;19.70;;
17052;SDS011;8643;48.824;11.422;2024-03-02T13:44:47;33.70;;;19.15;;
17052;SDS011;8643;48.824;11.422;2024-03-02T13:47:17;33.10;;;19.35;;
17052;SDS011;8643;48.824;11.422;2024-03-02T13:49:47;33.55;;;20.05;;
17052;SDS011;8643;48.824;11.422;2024-03-02T13:52:16;29.98;;;17.98;;
17052;SDS011;8643;48.824;11.422;2024-03-02T13:54:48;31.90;;;18.95;;
17052;SDS011;8643;48.824;11.422;2024-03-02T13:57:19;30.00;;;17.90;;
17052;SDS011;8643;48.824;11.422;2024-03-02T13:59:52;28.95;;;17.33;;
17052;SDS011;8643;48.824;11.422;2024-03-02T14:02:21;29.73;;;17.80;;
17052;SDS011;8643;48.824;11.422;2024-03-02T14:04:50;30.42;;;18.23;;
17052;SDS011;8643;48.824;11.422;2024-03-02T14:07:18;28.88;;;17.75;;
17052;SDS011;8643;48.824;11.422;2024-03-02T14:09:48;29.95;;;16.92;;
17052;SDS011;8643;48.824;11.422;2024-03-02T14:12:17;28.80;;;17.10;;
17052;SDS011;8643;48.824;11.422;2024-03-02T14:14:46;28.73;;;16.92;;
17052;SDS011;8643;48.824;11.422;2024-03-02T14:17:14;27.83;;;17.48;;
17052;SDS011;8643;48.824;11.422;2024-03-02T14:19:43;29.60;;;16.80;;
17052;SDS011;8643;48.824;11.422;2024-03-02T14:22:11;26.55;;;16.05;;
17052;SDS011;8643;48.824;11.422;2024-03-02T14:24:44;29.60;;;17.52;;
17052;SDS011;8643;48.824;11.422;2024-03-02T14:27:14;34.00;;;18.45;;
17052;SDS011;8643;48.824;11.422;2024-03-02T14:30:03;33.60;;;18.60;;
17052;SDS011;8643;48.824;11.422;2024-03-02T14:32:33;32.20;;;17.70;;
17052;SDS011;8643;48.824;11.422;2024-03-02T14:35:01;33.25;;;19.63;;